Terminal Aerodrome Forecast
Issued by NWS Amarillo, TX

Home | Current Version | Previous Version | Text Only | Print | Product List | Glossary On
Versions: 1 2 3 4 5 6 7 8 9 10 11 12 13 14 15
798
FTUS44 KAMA 082340
TAFDHT
TAF
KDHT 082340Z 0900/0924 13008KT P6SM OVC030
     FM090500 18013KT P6SM BKN015 OVC020
     FM090800 20014KT 6SM -SN SCT005 OVC010
     FM091600 20011KT P6SM OVC040
     FM091900 20010KT P6SM SCT040=

USA.gov is the U.S. government's official web portal to all federal, state and local government web resources and services.